RJNY  Shizuhama Airport

Add Bookmark

Japan

Status
Operational
Latitude Longitude
34° 48' 46" N 138° 17' 52" E
34.812801 138.298004
Local (DST + 9) UTC (GMT + 9)
Aug 31, 2014 03:14 Aug 31, 2014 06:14
Sunrise-Sunset Local UTC
Begin Civil Twilight 04:51 19:51
Sunrise 05:17 20:17
Sunset 06:16 09:16
End Civil Twilight 06:42 09:42

Current Weather

METAR Observed VFR
RJNY 310507Z 13006KT 100V160 9999 FEW015 BKN050 BKN230 25/19 Q1012 Sun, Aug 31, 2014 @ 05:07 UTC
(1 Hour, 7 Minutes ago)
Visual Flight Rules
Wind Visibility Clouds Conditions
130° at 6 knots (11 kph) 10 km or more
  • Few at 1,500' AGL
  • Broken at 5,000' AGL
  • Broken at 23,000' AGL
  • No significant weather
Temperatures Readings Precipitation
Current Temp 25°C (77°F)
Dewpoint 19°C (66°F)
Humidity 69%
Altimeter 29.88"Hg
Sea Level Pressure 1012mb
Field Elevation 32.81'
None Recorded

Additional weather within a 92.6km radius of RJNY

Map ICAO Location
rjns 10.2km W (259°)
RJAT 76.7km N (043°)

24 Hour Weather History

Loading
-

24 Hour Weather Graphs

Loading
-

CheckWX.com is intended as a tool to help pilots better visualize weather data. It is not intended as a substitute for an official weather briefing obtained from a Flight Service Station. CheckWX.com does not meet the FAA requirements for an official pre-flight weather briefing. Therefore, it's important that pilots still call and obtain an official FSS pre-flight weather briefing.